createdAt,value
2018-03-26T00:00:47.652Z,1006.67
2018-03-26T00:01:47.666Z,1006.69
2018-03-26T00:02:47.690Z,1006.70
2018-03-26T00:03:47.719Z,1006.67
2018-03-26T00:04:47.756Z,1006.68
2018-03-26T00:05:47.762Z,1006.70
2018-03-26T00:06:47.801Z,1006.69
2018-03-26T00:07:47.817Z,1006.70
2018-03-26T00:08:47.855Z,1006.74
2018-03-26T00:09:47.878Z,1006.73
2018-03-26T00:10:47.898Z,1006.71
2018-03-26T00:11:47.916Z,1006.69
2018-03-26T00:12:47.947Z,1006.73
2018-03-26T00:13:47.989Z,1006.72
2018-03-26T00:14:48.004Z,1006.73
2018-03-26T00:15:48.041Z,1006.70
2018-03-26T00:16:48.060Z,1006.69
2018-03-26T00:17:48.092Z,1006.67
2018-03-26T00:18:48.091Z,1006.72
2018-03-26T00:19:48.124Z,1006.65
2018-03-26T00:20:48.144Z,1006.69
2018-03-26T00:21:48.215Z,1006.68
2018-03-26T00:22:48.198Z,1006.71
2018-03-26T00:23:48.224Z,1006.67
2018-03-26T00:24:48.244Z,1006.68
2018-03-26T00:25:48.279Z,1006.66
2018-03-26T00:26:48.291Z,1006.67
2018-03-26T00:27:48.326Z,1006.67
2018-03-26T00:28:48.354Z,1006.67
2018-03-26T00:29:48.371Z,1006.70
2018-03-26T00:30:48.409Z,1006.67
2018-03-26T00:31:48.421Z,1006.67
2018-03-26T00:32:48.449Z,1006.68
2018-03-26T00:33:48.468Z,1006.67
2018-03-26T00:34:48.545Z,1006.69
2018-03-26T00:35:48.546Z,1006.71
2018-03-26T00:36:48.593Z,1006.69
2018-03-26T00:37:49.052Z,1006.72
2018-03-26T00:38:48.596Z,1006.71
2018-03-26T00:39:48.627Z,1006.69
2018-03-26T00:40:48.640Z,1006.69
2018-03-26T00:41:48.669Z,1006.66
2018-03-26T00:42:48.691Z,1006.68
2018-03-26T00:43:48.720Z,1006.68
2018-03-26T00:44:48.787Z,1006.67
2018-03-26T00:45:48.788Z,1006.67
2018-03-26T00:46:48.802Z,1006.69
2018-03-26T00:47:48.831Z,1006.63
2018-03-26T00:48:48.877Z,1006.67
2018-03-26T00:49:48.864Z,1006.63
2018-03-26T00:50:48.896Z,1006.66
2018-03-26T00:51:48.916Z,1006.65
2018-03-26T00:52:48.957Z,1006.67
2018-03-26T00:53:48.972Z,1006.68
2018-03-26T00:54:48.997Z,1006.69
2018-03-26T00:55:49.023Z,1006.68
2018-03-26T00:56:49.044Z,1006.65
2018-03-26T00:57:49.067Z,1006.67
2018-03-26T00:58:49.090Z,1006.66
2018-03-26T00:59:49.173Z,1006.64
2018-03-26T01:00:49.141Z,1006.67
2018-03-26T01:01:49.177Z,1006.72
2018-03-26T01:02:49.195Z,1006.74
2018-03-26T01:03:49.234Z,1006.73
2018-03-26T01:04:49.246Z,1006.73
2018-03-26T01:05:49.270Z,1006.76
2018-03-26T01:06:49.298Z,1006.73
2018-03-26T01:07:49.318Z,1006.79
2018-03-26T01:08:49.339Z,1006.76
2018-03-26T01:09:49.362Z,1006.73
2018-03-26T01:10:49.401Z,1006.77
2018-03-26T01:11:49.414Z,1006.74
2018-03-26T01:12:49.442Z,1006.75
2018-03-26T01:13:49.467Z,1006.75
2018-03-26T01:14:49.491Z,1006.76
2018-03-26T01:15:49.532Z,1006.79
2018-03-26T01:16:49.540Z,1006.76
2018-03-26T01:17:49.603Z,1006.77
2018-03-26T01:18:49.592Z,1006.79
2018-03-26T01:19:49.618Z,1006.77
2018-03-26T01:20:49.654Z,1006.76
2018-03-26T01:21:49.676Z,1006.77
2018-03-26T01:22:49.735Z,1006.80
2018-03-26T01:23:49.720Z,1006.82
2018-03-26T01:24:49.741Z,1006.78
2018-03-26T01:25:49.763Z,1006.80
2018-03-26T01:26:49.788Z,1006.82
2018-03-26T01:27:49.822Z,1006.79
2018-03-26T01:28:49.839Z,1006.78
2018-03-26T01:29:49.893Z,1006.82
2018-03-26T01:30:49.902Z,1006.78
2018-03-26T01:31:49.921Z,1006.86
2018-03-26T01:32:49.939Z,1006.81
2018-03-26T01:33:49.971Z,1006.84
2018-03-26T01:34:49.992Z,1006.83
2018-03-26T01:35:50.013Z,1006.81
2018-03-26T01:36:50.048Z,1006.82
2018-03-26T01:37:50.061Z,1006.82
2018-03-26T01:38:50.097Z,1006.84
2018-03-26T01:39:50.112Z,1006.85
2018-03-26T01:40:50.137Z,1006.90
2018-03-26T01:41:50.171Z,1006.87
2018-03-26T01:42:50.203Z,1006.90
2018-03-26T01:43:50.210Z,1006.93
2018-03-26T01:44:50.246Z,1006.90
2018-03-26T01:45:50.262Z,1006.92
2018-03-26T01:46:50.288Z,1006.90
2018-03-26T01:47:50.315Z,1006.92
2018-03-26T01:48:50.346Z,1006.92
2018-03-26T01:49:50.372Z,1006.90
2018-03-26T01:50:50.389Z,1006.94
2018-03-26T01:51:50.426Z,1006.93
2018-03-26T01:52:50.433Z,1006.93
2018-03-26T01:53:50.460Z,1006.89
2018-03-26T01:54:50.488Z,1006.90
2018-03-26T01:55:50.514Z,1006.92
2018-03-26T01:56:50.533Z,1006.94
2018-03-26T01:57:50.560Z,1006.93
2018-03-26T01:58:50.590Z,1006.96
2018-03-26T01:59:50.627Z,1006.92
2018-03-26T02:00:50.644Z,1006.94
2018-03-26T02:01:50.656Z,1006.93
2018-03-26T02:02:50.683Z,1006.97
2018-03-26T02:03:50.706Z,1006.95
2018-03-26T02:04:50.737Z,1006.95
2018-03-26T02:05:50.763Z,1006.96
2018-03-26T02:06:50.805Z,1006.97
2018-03-26T02:07:50.826Z,1006.97
2018-03-26T02:08:50.836Z,1006.97
2018-03-26T02:09:50.867Z,1006.95
2018-03-26T02:10:50.892Z,1006.96
2018-03-26T02:11:50.909Z,1006.96
2018-03-26T02:12:50.938Z,1006.95
2018-03-26T02:13:50.960Z,1006.99
2018-03-26T02:14:50.981Z,1007.01
2018-03-26T02:15:51.010Z,1007.00
2018-03-26T02:16:51.168Z,1007.03
2018-03-26T02:17:51.058Z,1007.08
2018-03-26T02:18:51.081Z,1007.08
2018-03-26T02:19:51.104Z,1007.06
2018-03-26T02:20:51.138Z,1007.02
2018-03-26T02:21:51.154Z,1007.00
2018-03-26T02:22:51.185Z,1007.05
2018-03-26T02:23:51.209Z,1006.98
2018-03-26T02:24:51.268Z,1006.97
2018-03-26T02:25:51.267Z,1006.96
2018-03-26T02:26:51.287Z,1006.99
2018-03-26T02:27:51.308Z,1006.97
2018-03-26T02:28:51.328Z,1006.96
2018-03-26T02:29:51.364Z,1006.96
2018-03-26T02:30:51.405Z,1007.01
2018-03-26T02:31:51.403Z,1007.03
2018-03-26T02:32:51.430Z,1007.06
2018-03-26T02:33:51.457Z,1007.10
2018-03-26T02:34:51.484Z,1007.13
2018-03-26T02:35:51.503Z,1007.17
2018-03-26T02:36:51.533Z,1007.17
2018-03-26T02:37:51.551Z,1007.13
2018-03-26T02:38:51.586Z,1007.12
2018-03-26T02:39:51.598Z,1007.06
2018-03-26T02:40:51.643Z,1007.04
2018-03-26T02:41:51.647Z,1007.07
2018-03-26T02:42:51.689Z,1007.13
2018-03-26T02:43:51.697Z,1007.17
2018-03-26T02:44:51.724Z,1007.23
2018-03-26T02:45:51.766Z,1007.23
2018-03-26T02:46:51.785Z,1007.24
2018-03-26T02:47:51.803Z,1007.18
2018-03-26T02:48:51.843Z,1007.16
2018-03-26T02:49:51.849Z,1007.17
2018-03-26T02:50:51.878Z,1007.21
2018-03-26T02:51:51.956Z,1007.18
2018-03-26T02:52:51.937Z,1007.18
2018-03-26T02:53:51.956Z,1007.24
2018-03-26T02:54:51.978Z,1007.25
2018-03-26T02:55:52.008Z,1007.26
2018-03-26T02:56:52.023Z,1007.24
2018-03-26T02:57:52.047Z,1007.18
2018-03-26T02:58:52.072Z,1007.16
2018-03-26T02:59:52.100Z,1007.19
2018-03-26T03:00:52.121Z,1007.22
2018-03-26T03:01:52.148Z,1007.24
2018-03-26T03:02:52.167Z,1007.24
2018-03-26T03:03:52.213Z,1007.19
2018-03-26T03:04:52.229Z,1007.19
2018-03-26T03:05:52.246Z,1007.18
2018-03-26T03:06:52.288Z,1007.22
2018-03-26T03:07:52.291Z,1007.30
2018-03-26T03:08:52.316Z,1007.25
2018-03-26T03:09:52.339Z,1007.26
2018-03-26T03:10:52.367Z,1007.22
2018-03-26T03:11:52.389Z,1007.25
2018-03-26T03:12:52.415Z,1007.25
2018-03-26T03:13:52.437Z,1007.27
2018-03-26T03:14:52.469Z,1007.30
2018-03-26T03:15:52.498Z,1007.27
2018-03-26T03:16:52.522Z,1007.27
2018-03-26T03:17:52.535Z,1007.23
2018-03-26T03:18:52.565Z,1007.23
2018-03-26T03:19:52.611Z,1007.23
2018-03-26T03:20:52.622Z,1007.25
2018-03-26T03:21:52.643Z,1007.24
2018-03-26T03:22:52.661Z,1007.25
2018-03-26T03:23:52.702Z,1007.24
2018-03-26T03:24:53.571Z,1007.25
2018-03-26T03:25:52.730Z,1007.29
2018-03-26T03:26:52.765Z,1007.29
2018-03-26T03:27:52.784Z,1007.29
2018-03-26T03:28:52.809Z,1007.27
2018-03-26T03:29:52.835Z,1007.26
2018-03-26T03:30:52.867Z,1007.28
2018-03-26T03:31:52.880Z,1007.28
2018-03-26T03:32:52.910Z,1007.25
2018-03-26T03:33:52.934Z,1007.25
2018-03-26T03:34:52.957Z,1007.27
2018-03-26T03:35:52.984Z,1007.32
2018-03-26T03:36:53.010Z,1007.29
2018-03-26T03:37:53.040Z,1007.34
2018-03-26T03:38:53.058Z,1007.34
2018-03-26T03:39:53.085Z,1007.33
2018-03-26T03:40:53.103Z,1007.32
2018-03-26T03:41:53.126Z,1007.31
2018-03-26T03:42:53.217Z,1007.31
2018-03-26T03:43:53.177Z,1007.34
2018-03-26T03:44:53.198Z,1007.36
2018-03-26T03:45:53.228Z,1007.40
2018-03-26T03:46:53.345Z,1007.44
2018-03-26T03:47:53.276Z,1007.41
2018-03-26T03:48:53.301Z,1007.41
2018-03-26T03:49:53.321Z,1007.43
2018-03-26T03:50:53.376Z,1007.44
2018-03-26T03:51:53.375Z,1007.44
2018-03-26T03:52:53.396Z,1007.45
2018-03-26T03:53:53.418Z,1007.45
2018-03-26T03:54:53.447Z,1007.42
2018-03-26T03:55:53.468Z,1007.44
2018-03-26T03:56:53.521Z,1007.44
2018-03-26T03:57:53.543Z,1007.46
2018-03-26T03:58:53.541Z,1007.45
2018-03-26T03:59:53.573Z,1007.42
2018-03-26T04:00:53.609Z,1007.43
2018-03-26T04:01:53.615Z,1007.45
2018-03-26T04:02:53.656Z,1007.43
2018-03-26T04:03:53.680Z,1007.44
2018-03-26T04:04:53.692Z,1007.42
2018-03-26T04:05:53.715Z,1007.43
2018-03-26T04:06:53.753Z,1007.41
2018-03-26T04:07:53.765Z,1007.43
2018-03-26T04:08:53.794Z,1007.42
2018-03-26T04:09:53.817Z,1007.40
2018-03-26T04:10:53.838Z,1007.37
2018-03-26T04:11:53.862Z,1007.40
2018-03-26T04:12:53.893Z,1007.40
2018-03-26T04:13:53.927Z,1007.38
2018-03-26T04:14:53.964Z,1007.39
2018-03-26T04:15:53.959Z,1007.41
2018-03-26T04:16:53.999Z,1007.40
2018-03-26T04:17:54.025Z,1007.41
2018-03-26T04:18:54.035Z,1007.37
2018-03-26T04:19:54.056Z,1007.44
2018-03-26T04:20:54.090Z,1007.40
2018-03-26T04:21:54.105Z,1007.43
2018-03-26T04:22:54.144Z,1007.44
2018-03-26T04:23:54.171Z,1007.48
2018-03-26T04:24:54.188Z,1007.48
2018-03-26T04:25:54.209Z,1007.48
2018-03-26T04:26:54.242Z,1007.52
2018-03-26T04:27:54.251Z,1007.53
2018-03-26T04:28:54.289Z,1007.51
2018-03-26T04:29:54.313Z,1007.50
2018-03-26T04:30:54.331Z,1007.58
2018-03-26T04:31:54.358Z,1007.58
2018-03-26T04:32:54.381Z,1007.63
2018-03-26T04:33:54.400Z,1007.60
2018-03-26T04:34:54.427Z,1007.61
2018-03-26T04:35:54.448Z,1007.63
2018-03-26T04:36:54.476Z,1007.61
2018-03-26T04:37:54.511Z,1007.62
2018-03-26T04:38:54.527Z,1007.56
2018-03-26T04:39:54.544Z,1007.55
2018-03-26T04:40:54.572Z,1007.52
2018-03-26T04:41:54.601Z,1007.47
2018-03-26T04:42:54.623Z,1007.45
2018-03-26T04:43:55.585Z,1007.51
2018-03-26T04:44:54.673Z,1007.54
2018-03-26T04:45:54.696Z,1007.56
2018-03-26T04:46:54.723Z,1007.57
2018-03-26T04:47:54.749Z,1007.57
2018-03-26T04:48:54.767Z,1007.59
2018-03-26T04:49:54.790Z,1007.57
2018-03-26T04:50:54.814Z,1007.56
2018-03-26T04:51:54.838Z,1007.58
2018-03-26T04:52:54.877Z,1007.61
2018-03-26T04:53:54.897Z,1007.58
2018-03-26T04:54:54.921Z,1007.57
2018-03-26T04:55:55.016Z,1007.59
2018-03-26T04:56:54.972Z,1007.58
2018-03-26T04:57:54.988Z,1007.59
2018-03-26T04:58:55.013Z,1007.59
2018-03-26T04:59:55.036Z,1007.59
2018-03-26T05:00:55.114Z,1007.59
2018-03-26T05:01:55.088Z,1007.57
2018-03-26T05:02:55.109Z,1007.55
2018-03-26T05:03:55.132Z,1007.58
2018-03-26T05:04:55.160Z,1007.56
2018-03-26T05:05:55.310Z,1007.55
2018-03-26T05:06:55.206Z,1007.56
2018-03-26T05:07:55.235Z,1007.57
2018-03-26T05:08:55.250Z,1007.60
2018-03-26T05:09:55.282Z,1007.58
2018-03-26T05:10:55.300Z,1007.57
2018-03-26T05:11:55.338Z,1007.55
2018-03-26T05:12:55.353Z,1007.57
2018-03-26T05:13:55.374Z,1007.56
2018-03-26T05:14:55.405Z,1007.55
2018-03-26T05:15:55.427Z,1007.62
2018-03-26T05:16:55.546Z,1007.63
2018-03-26T05:17:55.487Z,1007.62
2018-03-26T05:18:55.503Z,1007.69
2018-03-26T05:19:55.519Z,1007.69
2018-03-26T05:20:55.548Z,1007.69
2018-03-26T05:21:55.572Z,1007.73
2018-03-26T05:22:55.595Z,1007.77
2018-03-26T05:23:55.626Z,1007.82
2018-03-26T05:24:55.644Z,1007.84
2018-03-26T05:25:55.672Z,1007.85
2018-03-26T05:26:55.700Z,1007.84
2018-03-26T05:27:55.775Z,1007.81
2018-03-26T05:28:55.737Z,1007.77
2018-03-26T05:29:55.767Z,1007.72
2018-03-26T05:30:55.846Z,1007.72
2018-03-26T05:31:55.865Z,1007.72
2018-03-26T05:32:55.854Z,1007.74
2018-03-26T05:33:55.878Z,1007.73
2018-03-26T05:34:55.886Z,1007.73
2018-03-26T05:35:55.914Z,1007.74
2018-03-26T05:36:55.936Z,1007.69
2018-03-26T05:37:55.955Z,1007.74
2018-03-26T05:38:55.981Z,1007.75
2018-03-26T05:39:56.012Z,1007.75
2018-03-26T05:40:56.027Z,1007.77
2018-03-26T05:41:56.059Z,1007.75
2018-03-26T05:42:56.113Z,1007.80
2018-03-26T05:43:56.101Z,1007.81
2018-03-26T05:44:56.127Z,1007.84
2018-03-26T05:45:56.156Z,1007.89
2018-03-26T05:46:56.189Z,1007.84
2018-03-26T05:47:56.203Z,1007.90
2018-03-26T05:48:56.230Z,1007.84
2018-03-26T05:49:56.247Z,1007.89
2018-03-26T05:50:56.278Z,1007.90
2018-03-26T05:51:56.300Z,1007.92
2018-03-26T05:52:56.327Z,1007.94
2018-03-26T05:53:56.355Z,1007.93
2018-03-26T05:54:56.369Z,1007.93
2018-03-26T05:55:56.417Z,1007.93
2018-03-26T05:56:56.428Z,1007.96
2018-03-26T05:57:56.441Z,1007.93
2018-03-26T05:58:56.471Z,1007.96
2018-03-26T05:59:56.493Z,1007.93
2018-03-26T06:00:56.522Z,1007.98
2018-03-26T06:01:56.540Z,1007.98
2018-03-26T06:02:56.563Z,1007.99
2018-03-26T06:03:56.584Z,1008.01
2018-03-26T06:04:56.609Z,1008.01
2018-03-26T06:05:56.640Z,1008.03
2018-03-26T06:06:56.667Z,1008.02
2018-03-26T06:07:56.683Z,1008.00
2018-03-26T06:08:56.714Z,1008.01
2018-03-26T06:09:56.730Z,1008.04
2018-03-26T06:10:56.762Z,1008.09
2018-03-26T06:11:56.931Z,1008.10
2018-03-26T06:12:56.804Z,1008.06
2018-03-26T06:13:56.878Z,1008.09
2018-03-26T06:14:56.866Z,1008.06
2018-03-26T06:15:56.883Z,1008.11
2018-03-26T06:16:56.903Z,1008.10
2018-03-26T06:17:56.933Z,1008.12
2018-03-26T06:18:56.948Z,1008.16
2018-03-26T06:19:56.974Z,1008.17
2018-03-26T06:20:57.003Z,1008.16
2018-03-26T06:21:57.020Z,1008.18
2018-03-26T06:22:57.053Z,1008.21
2018-03-26T06:23:57.079Z,1008.19
2018-03-26T06:24:57.147Z,1008.14
2018-03-26T06:25:57.144Z,1008.19
2018-03-26T06:26:57.159Z,1008.18
2018-03-26T06:27:57.180Z,1008.17
2018-03-26T06:28:57.194Z,1008.20
2018-03-26T06:29:57.226Z,1008.17
2018-03-26T06:30:57.245Z,1008.20
2018-03-26T06:31:57.268Z,1008.22
2018-03-26T06:32:57.301Z,1008.22
2018-03-26T06:33:57.317Z,1008.25
2018-03-26T06:34:57.357Z,1008.21
2018-03-26T06:35:57.457Z,1008.24
2018-03-26T06:36:57.413Z,1008.28
2018-03-26T06:37:57.437Z,1008.28
2018-03-26T06:38:57.444Z,1008.25
2018-03-26T06:39:57.462Z,1008.26
2018-03-26T06:40:57.490Z,1008.26
2018-03-26T06:41:57.510Z,1008.27
2018-03-26T06:42:57.537Z,1008.29
2018-03-26T06:43:57.592Z,1008.27
2018-03-26T06:44:57.590Z,1008.29
2018-03-26T06:45:57.608Z,1008.26
2018-03-26T06:46:57.637Z,1008.26
2018-03-26T06:51:44.988Z,1008.30
2018-03-26T06:52:45.001Z,1008.32
2018-03-26T06:54:38.196Z,1008.35
2018-03-26T06:55:38.261Z,1008.40
2018-03-26T06:57:30.496Z,1008.37
2018-03-26T06:58:30.454Z,1008.42
2018-03-26T07:00:38.008Z,1008.44
2018-03-26T07:01:38.058Z,1008.42
2018-03-26T07:03:31.175Z,1008.50
2018-03-26T07:04:31.205Z,1008.47
2018-03-26T07:06:24.405Z,1008.49
2018-03-26T07:07:24.411Z,1008.49
2018-03-26T07:09:17.602Z,1008.51
2018-03-26T07:10:17.654Z,1008.52
2018-03-26T07:12:10.853Z,1008.51
2018-03-26T07:13:10.849Z,1008.52
2018-03-26T07:15:04.016Z,1008.55
2018-03-26T07:16:03.996Z,1008.55
2018-03-26T07:17:57.183Z,1008.51
2018-03-26T07:18:57.169Z,1008.53
2018-03-26T07:20:50.367Z,1008.60
2018-03-26T07:21:50.377Z,1008.59
2018-03-26T07:23:43.518Z,1008.57
2018-03-26T07:24:43.543Z,1008.59
2018-03-26T07:26:36.722Z,1008.57
2018-03-26T07:27:36.721Z,1008.61
2018-03-26T07:29:29.902Z,1008.63
2018-03-26T07:30:29.908Z,1008.65
2018-03-26T07:32:23.227Z,1008.63
2018-03-26T07:33:23.115Z,1008.63
2018-03-26T07:35:16.293Z,1008.69
2018-03-26T07:36:16.292Z,1008.73
2018-03-26T07:38:09.469Z,1008.67
2018-03-26T07:39:09.452Z,1008.72
2018-03-26T07:41:02.643Z,1008.74
2018-03-26T07:42:02.654Z,1008.73
2018-03-26T07:43:55.806Z,1008.69
2018-03-26T07:44:55.809Z,1008.73
2018-03-26T07:46:48.970Z,1008.73
2018-03-26T07:47:48.983Z,1008.69
2018-03-26T07:49:42.163Z,1008.73
2018-03-26T07:50:42.188Z,1008.74
2018-03-26T07:52:35.674Z,1008.74
2018-03-26T07:53:35.369Z,1008.73
2018-03-26T07:55:28.485Z,1008.75
2018-03-26T07:56:28.511Z,1008.72
2018-03-26T07:58:21.757Z,1008.77
2018-03-26T07:59:21.713Z,1008.78
2018-03-26T08:01:14.915Z,1008.83
2018-03-26T08:02:14.928Z,1008.83
2018-03-26T08:04:08.126Z,1008.79
2018-03-26T08:05:08.133Z,1008.85
2018-03-26T08:07:01.365Z,1008.87
2018-03-26T08:08:01.351Z,1008.84
2018-03-26T08:09:54.526Z,1008.87
2018-03-26T08:10:54.550Z,1008.87
2018-03-26T08:12:47.783Z,1008.89
2018-03-26T08:13:47.793Z,1008.91
2018-03-26T08:15:40.944Z,1008.94
2018-03-26T08:16:40.980Z,1008.92
2018-03-26T08:18:34.144Z,1008.95
2018-03-26T08:19:34.145Z,1008.95
2018-03-26T08:21:27.313Z,1009.02
2018-03-26T08:22:27.375Z,1008.99
2018-03-26T08:24:20.518Z,1009.05
2018-03-26T08:25:20.513Z,1009.09
2018-03-26T08:27:13.772Z,1009.09
2018-03-26T08:28:13.779Z,1009.09
2018-03-26T08:30:06.950Z,1009.10
2018-03-26T08:31:06.994Z,1009.07
2018-03-26T08:33:00.160Z,1009.10
2018-03-26T08:34:00.155Z,1009.10
2018-03-26T08:35:53.319Z,1009.10
2018-03-26T08:36:53.348Z,1009.12
2018-03-26T08:38:46.533Z,1009.10
2018-03-26T08:39:46.549Z,1009.07
2018-03-26T08:41:39.847Z,1009.06
2018-03-26T08:42:39.824Z,1009.03
2018-03-26T08:44:33.001Z,1009.03
2018-03-26T08:45:33.039Z,1009.04
2018-03-26T08:47:26.218Z,1009.05
2018-03-26T08:48:26.220Z,1009.04
2018-03-26T08:50:32.797Z,1009.08
2018-03-26T08:51:32.880Z,1009.07
2018-03-26T08:53:25.983Z,1009.10
2018-03-26T08:54:25.972Z,1009.11
2018-03-26T08:56:35.499Z,1009.12
2018-03-26T08:57:35.509Z,1009.13
2018-03-26T08:59:45.038Z,1009.13
2018-03-26T09:00:45.051Z,1009.17
2018-03-26T09:01:45.075Z,1009.20
2018-03-26T09:02:45.107Z,1009.17
2018-03-26T09:03:45.132Z,1009.19
2018-03-26T09:04:45.157Z,1009.21
2018-03-26T09:05:45.224Z,1009.20
2018-03-26T09:06:45.229Z,1009.23
2018-03-26T09:07:45.902Z,1009.24
2018-03-26T09:08:45.251Z,1009.25
2018-03-26T09:09:45.279Z,1009.25
2018-03-26T09:10:45.296Z,1009.30
2018-03-26T09:11:45.324Z,1009.27
2018-03-26T09:12:45.348Z,1009.31
2018-03-26T09:13:45.383Z,1009.31
2018-03-26T09:14:45.416Z,1009.32
2018-03-26T09:15:45.438Z,1009.33
2018-03-26T09:16:45.459Z,1009.36
2018-03-26T09:17:45.471Z,1009.38
2018-03-26T09:18:45.505Z,1009.34
2018-03-26T09:19:45.528Z,1009.40
2018-03-26T09:20:45.562Z,1009.36
2018-03-26T09:21:45.581Z,1009.41
2018-03-26T09:22:45.612Z,1009.42
2018-03-26T09:23:45.628Z,1009.41
2018-03-26T09:24:45.649Z,1009.44
2018-03-26T09:25:45.678Z,1009.46
2018-03-26T09:26:45.706Z,1009.46
2018-03-26T09:27:45.744Z,1009.47
2018-03-26T09:28:45.750Z,1009.44
2018-03-26T09:29:45.784Z,1009.46
2018-03-26T09:30:45.814Z,1009.46
2018-03-26T09:31:45.830Z,1009.48
2018-03-26T09:32:45.861Z,1009.47
2018-03-26T09:33:45.903Z,1009.44
2018-03-26T09:34:45.929Z,1009.42
2018-03-26T09:35:45.936Z,1009.44
2018-03-26T09:36:45.968Z,1009.46
2018-03-26T09:37:45.977Z,1009.46
2018-03-26T09:38:46.000Z,1009.47
2018-03-26T09:39:46.032Z,1009.51
2018-03-26T09:40:46.061Z,1009.49
2018-03-26T09:41:46.092Z,1009.51
2018-03-26T09:42:46.105Z,1009.52
2018-03-26T09:43:46.137Z,1009.55
2018-03-26T09:44:46.161Z,1009.52
2018-03-26T09:45:46.181Z,1009.55
2018-03-26T09:46:46.212Z,1009.57
2018-03-26T09:47:46.288Z,1009.59
2018-03-26T09:48:46.262Z,1009.55
2018-03-26T09:49:46.291Z,1009.53
2018-03-26T09:50:46.320Z,1009.54
2018-03-26T09:51:46.335Z,1009.54
2018-03-26T09:52:46.359Z,1009.51
2018-03-26T09:53:46.384Z,1009.54
2018-03-26T09:54:46.415Z,1009.55
2018-03-26T09:55:46.439Z,1009.53
2018-03-26T09:56:46.461Z,1009.53
2018-03-26T09:57:46.486Z,1009.54
2018-03-26T09:58:46.573Z,1009.52
2018-03-26T09:59:46.548Z,1009.57
2018-03-26T10:00:46.567Z,1009.54
2018-03-26T10:01:46.617Z,1009.58
2018-03-26T10:02:46.608Z,1009.59
2018-03-26T10:03:46.637Z,1009.58
2018-03-26T10:04:46.678Z,1009.64
2018-03-26T10:05:46.688Z,1009.62
2018-03-26T10:06:46.724Z,1009.65
2018-03-26T10:07:46.746Z,1009.63
2018-03-26T10:08:46.763Z,1009.59
2018-03-26T10:09:46.798Z,1009.61
2018-03-26T10:10:46.819Z,1009.65
2018-03-26T10:11:46.922Z,1009.66
2018-03-26T10:12:46.868Z,1009.68
2018-03-26T10:13:46.926Z,1009.69
2018-03-26T10:14:46.920Z,1009.68
2018-03-26T10:15:46.947Z,1009.68
2018-03-26T10:16:46.976Z,1009.76
2018-03-26T10:17:46.995Z,1009.71
2018-03-26T10:18:47.018Z,1009.73
2018-03-26T10:19:47.068Z,1009.73
2018-03-26T10:20:47.111Z,1009.72
2018-03-26T10:21:47.098Z,1009.73
2018-03-26T10:22:47.132Z,1009.74
2018-03-26T10:23:47.147Z,1009.78
2018-03-26T10:24:47.252Z,1009.76
2018-03-26T10:25:47.195Z,1009.80
2018-03-26T10:26:47.222Z,1009.78
2018-03-26T10:27:47.247Z,1009.79
2018-03-26T10:28:47.273Z,1009.82
2018-03-26T10:29:47.303Z,1009.83
2018-03-26T10:30:47.326Z,1009.81
2018-03-26T10:31:47.341Z,1009.86
2018-03-26T10:32:47.384Z,1009.84
2018-03-26T10:33:47.418Z,1009.86
2018-03-26T10:34:47.440Z,1009.86
2018-03-26T10:35:47.481Z,1009.87
2018-03-26T10:36:47.485Z,1009.92
2018-03-26T10:37:47.516Z,1009.90
2018-03-26T10:38:47.568Z,1009.93
2018-03-26T10:39:47.551Z,1009.93
2018-03-26T10:40:47.574Z,1009.93
2018-03-26T10:41:47.604Z,1009.89
2018-03-26T10:42:47.643Z,1009.95
2018-03-26T10:43:47.667Z,1009.97
2018-03-26T10:44:47.795Z,1009.97
2018-03-26T10:45:47.712Z,1009.96
2018-03-26T10:46:47.800Z,1010.01
2018-03-26T10:47:47.763Z,1009.99
2018-03-26T10:48:47.782Z,1009.97
2018-03-26T10:49:47.806Z,1010.00
2018-03-26T10:50:47.827Z,1010.00
2018-03-26T10:51:47.857Z,1010.01
2018-03-26T10:52:47.877Z,1010.01
2018-03-26T10:53:47.921Z,1010.03
2018-03-26T10:54:47.947Z,1010.02
2018-03-26T10:55:47.971Z,1010.01
2018-03-26T10:56:47.980Z,1010.00
2018-03-26T10:57:48.014Z,1010.00
2018-03-26T10:58:48.029Z,1009.98
2018-03-26T10:59:48.061Z,1010.00
2018-03-26T11:00:48.086Z,1009.99
2018-03-26T11:01:48.115Z,1009.97
2018-03-26T11:02:48.135Z,1010.01
2018-03-26T11:03:48.160Z,1010.00
2018-03-26T11:04:48.183Z,1010.01
2018-03-26T11:05:48.217Z,1010.00
2018-03-26T11:06:48.235Z,1010.02
2018-03-26T11:07:48.268Z,1010.01
2018-03-26T11:08:48.285Z,1010.03
2018-03-26T11:09:48.311Z,1010.06
2018-03-26T11:10:48.330Z,1010.05
2018-03-26T11:11:48.360Z,1010.08
2018-03-26T11:12:48.387Z,1010.06
2018-03-26T11:13:48.409Z,1010.09
2018-03-26T11:14:48.446Z,1010.06
2018-03-26T11:15:48.458Z,1010.05
2018-03-26T11:16:48.484Z,1010.11
2018-03-26T11:17:48.532Z,1010.12
2018-03-26T11:18:48.535Z,1010.09
2018-03-26T11:19:48.565Z,1010.11
2018-03-26T11:20:48.645Z,1010.10
2018-03-26T11:21:48.622Z,1010.13
2018-03-26T11:22:48.665Z,1010.15
2018-03-26T11:23:48.679Z,1010.17
2018-03-26T11:24:48.700Z,1010.16
2018-03-26T11:25:48.715Z,1010.16
2018-03-26T11:26:48.745Z,1010.18
2018-03-26T11:27:48.802Z,1010.20
2018-03-26T11:28:48.796Z,1010.21
2018-03-26T11:29:48.817Z,1010.24
2018-03-26T11:30:48.838Z,1010.24
2018-03-26T11:31:48.876Z,1010.25
2018-03-26T11:32:48.900Z,1010.27
2018-03-26T11:33:48.913Z,1010.28
2018-03-26T11:34:48.951Z,1010.28
2018-03-26T11:35:48.975Z,1010.30
2018-03-26T11:36:48.992Z,1010.29
2018-03-26T11:37:49.037Z,1010.34
2018-03-26T11:38:49.038Z,1010.33
2018-03-26T11:39:49.178Z,1010.33
2018-03-26T11:40:49.100Z,1010.34
2018-03-26T11:41:49.261Z,1010.34
2018-03-26T11:42:49.144Z,1010.36
2018-03-26T11:43:49.172Z,1010.37
2018-03-26T11:44:49.195Z,1010.34
2018-03-26T11:45:49.244Z,1010.36
2018-03-26T11:46:49.250Z,1010.33
2018-03-26T11:47:49.265Z,1010.36
2018-03-26T11:48:49.288Z,1010.40
2018-03-26T11:49:49.327Z,1010.40
2018-03-26T11:50:49.338Z,1010.40
2018-03-26T11:51:49.389Z,1010.40
2018-03-26T11:52:49.396Z,1010.39
2018-03-26T11:53:49.420Z,1010.40
2018-03-26T11:54:49.461Z,1010.41
2018-03-26T11:55:49.466Z,1010.43
2018-03-26T11:56:49.495Z,1010.44
2018-03-26T11:57:49.529Z,1010.45
2018-03-26T11:58:49.544Z,1010.44
2018-03-26T11:59:49.574Z,1010.46
2018-03-26T12:00:49.590Z,1010.46
2018-03-26T12:01:49.617Z,1010.47
2018-03-26T12:02:49.637Z,1010.47
2018-03-26T12:03:49.727Z,1010.52
2018-03-26T12:04:49.700Z,1010.47
2018-03-26T12:05:49.740Z,1010.50
2018-03-26T12:06:49.740Z,1010.49
2018-03-26T12:07:49.763Z,1010.50
2018-03-26T12:08:49.807Z,1010.51
2018-03-26T12:09:49.816Z,1010.55
2018-03-26T12:10:49.845Z,1010.51
2018-03-26T12:11:49.892Z,1010.54
2018-03-26T12:12:49.890Z,1010.54
2018-03-26T12:13:49.932Z,1010.55
2018-03-26T12:14:49.943Z,1010.55
2018-03-26T12:15:49.966Z,1010.56
2018-03-26T12:16:49.985Z,1010.54
2018-03-26T12:17:50.026Z,1010.55
2018-03-26T12:18:50.040Z,1010.54
2018-03-26T12:19:50.108Z,1010.55
2018-03-26T12:20:50.087Z,1010.57
2018-03-26T12:21:50.126Z,1010.56
2018-03-26T12:22:50.155Z,1010.57
2018-03-26T12:23:50.164Z,1010.55
2018-03-26T12:24:50.188Z,1010.60
2018-03-26T12:25:50.223Z,1010.60
2018-03-26T12:26:50.244Z,1010.55
2018-03-26T12:27:50.265Z,1010.57
2018-03-26T12:28:50.296Z,1010.57
2018-03-26T12:29:50.314Z,1010.56
2018-03-26T12:30:50.334Z,1010.57
2018-03-26T12:31:50.371Z,1010.59
2018-03-26T12:32:50.392Z,1010.58
2018-03-26T12:33:50.416Z,1010.60
2018-03-26T12:34:50.461Z,1010.57
2018-03-26T12:35:50.459Z,1010.59
2018-03-26T12:36:50.486Z,1010.59
2018-03-26T12:37:50.513Z,1010.58
2018-03-26T12:38:50.536Z,1010.59
2018-03-26T12:39:50.587Z,1010.59
2018-03-26T12:40:50.586Z,1010.59
2018-03-26T12:41:50.619Z,1010.59
2018-03-26T12:42:50.633Z,1010.57
2018-03-26T12:43:50.676Z,1010.56
2018-03-26T12:44:50.681Z,1010.52
2018-03-26T12:45:50.717Z,1010.57
2018-03-26T12:46:50.745Z,1010.57
2018-03-26T12:47:50.771Z,1010.59
2018-03-26T12:48:50.803Z,1010.56
2018-03-26T12:49:50.805Z,1010.59